createdAt,value
2019-05-02T00:00:59.116Z,70.31
2019-05-02T00:03:28.302Z,70.31
2019-05-02T00:05:56.176Z,69.66
2019-05-02T00:08:24.183Z,69.61
2019-05-02T00:10:52.571Z,69.37
2019-05-02T00:13:20.582Z,69.23
2019-05-02T00:15:49.667Z,69.24
2019-05-02T00:18:18.180Z,69.24
2019-05-02T00:20:46.704Z,68.82
2019-05-02T00:23:14.651Z,68.48
2019-05-02T00:25:42.537Z,68.48
2019-05-02T00:28:12.481Z,68.31
2019-05-02T00:30:40.286Z,68.31
2019-05-02T00:33:10.451Z,68.37
2019-05-02T00:35:40.897Z,68.44
2019-05-02T00:38:08.403Z,68.36
2019-05-02T00:40:36.274Z,68.70
2019-05-02T00:43:04.203Z,68.60
2019-05-02T00:45:32.109Z,68.29
2019-05-02T00:48:05.216Z,68.50
2019-05-02T00:50:36.643Z,68.19
2019-05-02T00:53:07.156Z,68.19
2019-05-02T00:55:35.561Z,68.12
2019-05-02T00:58:03.812Z,68.23
2019-05-02T01:00:37.328Z,67.78
2019-05-02T01:03:05.169Z,67.61
2019-05-02T01:05:33.719Z,67.61
2019-05-02T01:08:03.335Z,67.89
2019-05-02T01:10:31.771Z,67.68
2019-05-02T01:13:00.888Z,67.83
2019-05-02T01:15:28.786Z,67.57
2019-05-02T01:17:56.485Z,67.47
2019-05-02T01:20:27.530Z,67.65
2019-05-02T01:22:53.886Z,67.51
2019-05-02T01:25:21.655Z,67.51
2019-05-02T01:28:18.755Z,67.42
2019-05-02T01:31:13.283Z,67.41
2019-05-02T01:33:48.699Z,67.25
2019-05-02T01:36:22.909Z,67.28
2019-05-02T01:38:50.647Z,67.17
2019-05-02T01:41:18.518Z,67.40
2019-05-02T01:43:46.261Z,67.74
2019-05-02T01:46:17.231Z,67.74
2019-05-02T01:48:45.593Z,67.51
2019-05-02T01:51:14.055Z,67.51
2019-05-02T01:53:41.890Z,67.40
2019-05-02T01:56:09.752Z,67.40
2019-05-02T01:58:42.775Z,67.62
2019-05-02T02:01:10.643Z,67.62
2019-05-02T02:03:40.411Z,67.91
2019-05-02T02:06:10.077Z,68.14
2019-05-02T02:08:38.270Z,68.13
2019-05-02T02:11:06.153Z,68.13
2019-05-02T02:13:36.684Z,68.61
2019-05-02T02:16:05.742Z,68.80
2019-05-02T02:18:37.801Z,68.80
2019-05-02T02:21:25.627Z,68.86
2019-05-02T02:24:02.641Z,68.94
2019-05-02T02:26:30.518Z,69.07
2019-05-02T02:28:58.681Z,69.67
2019-05-02T02:31:26.540Z,69.89
2019-05-02T02:33:55.745Z,69.89
2019-05-02T02:36:31.694Z,70.27
2019-05-02T02:38:53.292Z,70.21
2019-05-02T02:41:21.208Z,70.68
2019-05-02T02:44:23.758Z,70.68
2019-05-02T02:46:52.337Z,71.05
2019-05-02T02:49:24.004Z,71.46
2019-05-02T02:51:49.777Z,71.92
2019-05-02T02:54:17.717Z,71.85
2019-05-02T02:56:45.788Z,71.85
2019-05-02T02:59:19.383Z,72.05
2019-05-02T03:01:43.636Z,72.14
2019-05-02T03:04:12.217Z,72.14
2019-05-02T03:06:45.169Z,72.14
2019-05-02T03:09:10.176Z,72.87
2019-05-02T03:11:48.886Z,72.25
2019-05-02T03:14:22.151Z,73.39
2019-05-02T03:16:50.062Z,72.75
2019-05-02T03:19:21.251Z,72.89
2019-05-02T03:21:54.589Z,73.04
2019-05-02T03:24:24.774Z,73.04
2019-05-02T03:26:55.225Z,72.86
2019-05-02T03:29:22.531Z,72.87
2019-05-02T03:32:11.916Z,73.01
2019-05-02T03:34:23.928Z,73.02
2019-05-02T03:36:51.646Z,72.83
2019-05-02T03:39:19.925Z,73.01
2019-05-02T03:41:47.969Z,72.75
2019-05-02T03:44:24.687Z,72.75
2019-05-02T03:46:46.364Z,72.69
2019-05-02T03:49:14.337Z,73.10
2019-05-02T03:51:42.109Z,73.04
2019-05-02T03:54:10.622Z,72.74
2019-05-02T03:56:44.489Z,72.96
2019-05-02T03:59:08.541Z,72.87
2019-05-02T04:01:41.333Z,73.01
2019-05-02T04:04:06.532Z,72.98
2019-05-02T04:06:34.353Z,73.43
2019-05-02T04:09:02.529Z,73.31
2019-05-02T04:11:38.401Z,73.53
2019-05-02T04:14:00.512Z,73.49
2019-05-02T04:16:29.419Z,73.82
2019-05-02T04:18:58.476Z,73.56
2019-05-02T04:21:26.736Z,74.08
2019-05-02T04:24:07.576Z,73.87
2019-05-02T04:26:25.958Z,74.25
2019-05-02T04:28:53.881Z,73.97
2019-05-02T04:31:24.630Z,74.25
2019-05-02T04:33:54.123Z,74.29
2019-05-02T04:36:21.933Z,75.47
2019-05-02T04:38:52.475Z,75.37
2019-05-02T04:41:28.827Z,75.09
2019-05-02T04:43:55.791Z,75.55
2019-05-02T04:46:27.269Z,75.92
2019-05-02T04:48:52.741Z,76.29
2019-05-02T04:51:20.401Z,75.96
2019-05-02T04:53:49.887Z,76.53
2019-05-02T04:56:18.645Z,76.37
2019-05-02T04:58:49.492Z,76.37
2019-05-02T05:01:16.585Z,75.68
2019-05-02T05:03:49.128Z,76.26
2019-05-02T05:06:14.163Z,76.33
2019-05-02T05:08:52.781Z,76.28
2019-05-02T05:11:24.703Z,75.74
2019-05-02T05:13:52.382Z,75.79
2019-05-02T05:16:19.845Z,76.15
2019-05-02T05:18:49.309Z,76.13
2019-05-02T05:21:17.937Z,75.61
2019-05-02T05:24:08.437Z,76.16
2019-05-02T05:26:41.085Z,75.85
2019-05-02T05:29:08.256Z,75.98
2019-05-02T05:31:38.177Z,75.79
2019-05-02T05:34:07.806Z,75.62
2019-05-02T05:36:37.497Z,75.48
2019-05-02T05:39:08.583Z,75.38
2019-05-02T05:41:37.812Z,75.38
2019-05-02T05:44:07.610Z,75.07
2019-05-02T05:46:40.977Z,74.93
2019-05-02T05:49:04.971Z,75.13
2019-05-02T05:51:32.747Z,75.29
2019-05-02T05:54:03.099Z,75.65
2019-05-02T05:56:32.559Z,75.15
2019-05-02T05:59:00.393Z,75.43
2019-05-02T06:01:34.445Z,75.09
2019-05-02T06:03:58.214Z,74.86
2019-05-02T06:06:27.487Z,75.17
2019-05-02T06:08:55.575Z,75.00
2019-05-02T06:11:23.367Z,73.74
2019-05-02T06:13:51.183Z,73.74
2019-05-02T06:16:18.968Z,74.00
2019-05-02T06:18:47.170Z,74.00
2019-05-02T06:21:17.182Z,74.03
2019-05-02T06:23:45.149Z,73.70
2019-05-02T06:26:14.049Z,73.64
2019-05-02T06:28:43.264Z,73.21
2019-05-02T06:31:11.237Z,73.21
2019-05-02T06:33:39.557Z,71.87
2019-05-02T06:36:07.427Z,71.41
2019-05-02T06:38:35.934Z,71.41
2019-05-02T06:41:03.911Z,71.70
2019-05-02T06:43:31.615Z,71.65
2019-05-02T06:45:59.476Z,71.22
2019-05-02T06:48:27.904Z,71.36
2019-05-02T06:50:56.793Z,71.36
2019-05-02T06:53:24.673Z,70.39
2019-05-02T06:55:52.553Z,70.39
2019-05-02T06:58:20.461Z,70.06
2019-05-02T07:00:57.453Z,70.06
2019-05-02T07:03:18.146Z,68.64
2019-05-02T07:05:48.865Z,69.39
2019-05-02T07:08:15.642Z,67.24
2019-05-02T07:10:44.976Z,67.20
2019-05-02T07:13:15.068Z,67.44
2019-05-02T07:16:36.822Z,67.44
2019-05-02T07:18:50.910Z,67.05
2019-05-02T07:21:23.250Z,67.05
2019-05-02T07:23:52.984Z,66.86
2019-05-02T07:26:21.107Z,67.35
2019-05-02T07:28:48.267Z,66.05
2019-05-02T07:31:16.238Z,64.72
2019-05-02T07:33:45.451Z,64.40
2019-05-02T07:36:13.333Z,64.40
2019-05-02T07:38:42.599Z,64.31
2019-05-02T07:41:10.512Z,64.22
2019-05-02T07:43:41.273Z,64.22
2019-05-02T07:46:09.110Z,64.24
2019-05-02T07:48:36.856Z,64.21
2019-05-02T07:51:04.756Z,63.24
2019-05-02T07:53:32.674Z,63.92
2019-05-02T07:56:00.852Z,64.16
2019-05-02T07:58:29.200Z,64.10
2019-05-02T08:00:56.925Z,64.10
2019-05-02T08:03:29.447Z,62.62
2019-05-02T08:05:58.149Z,63.02
2019-05-02T08:08:25.024Z,62.59
2019-05-02T08:11:01.336Z,62.69
2019-05-02T08:13:23.447Z,63.08
2019-05-02T08:15:52.388Z,62.97
2019-05-02T08:18:20.385Z,62.86
2019-05-02T08:20:51.112Z,61.59
2019-05-02T08:23:20.623Z,60.47
2019-05-02T08:25:47.506Z,59.99
2019-05-02T08:28:20.508Z,59.86
2019-05-02T08:30:52.042Z,59.86
2019-05-02T08:33:20.013Z,59.36
2019-05-02T08:35:47.855Z,59.15
2019-05-02T08:38:17.847Z,58.45
2019-05-02T08:40:47.871Z,58.56
2019-05-02T08:43:15.085Z,58.25
2019-05-02T08:45:46.197Z,58.80
2019-05-02T08:48:14.150Z,59.93
2019-05-02T08:50:41.863Z,59.28
2019-05-02T08:53:13.902Z,58.30
2019-05-02T08:55:41.240Z,58.97
2019-05-02T08:58:14.384Z,57.96
2019-05-02T09:00:39.571Z,57.43
2019-05-02T09:03:07.648Z,55.09
2019-05-02T09:05:36.403Z,54.21
2019-05-02T09:08:09.296Z,53.10
2019-05-02T09:10:37.166Z,53.10
2019-05-02T09:13:04.838Z,53.45
2019-05-02T09:15:35.213Z,52.70
2019-05-02T09:18:02.830Z,53.22
2019-05-02T09:20:31.947Z,52.59
2019-05-02T09:23:01.735Z,53.75
2019-05-02T09:25:29.740Z,53.54
2019-05-02T09:27:57.433Z,53.09
2019-05-02T09:30:25.966Z,51.72
2019-05-02T09:32:57.054Z,52.68
2019-05-02T09:35:24.314Z,52.68
2019-05-02T09:37:52.327Z,53.10
2019-05-02T09:40:22.277Z,53.25
2019-05-02T09:42:53.365Z,53.01
2019-05-02T09:45:27.915Z,51.31
2019-05-02T09:48:04.549Z,50.75
2019-05-02T09:50:31.232Z,50.75
2019-05-02T09:52:56.482Z,49.79
2019-05-02T09:55:24.404Z,50.88
2019-05-02T09:57:52.158Z,51.11
2019-05-02T10:00:44.081Z,51.11
2019-05-02T10:03:12.900Z,51.72
2019-05-02T10:05:43.047Z,51.59
2019-05-02T10:08:13.719Z,49.57
2019-05-02T10:10:45.656Z,49.41
2019-05-02T10:13:12.184Z,48.34
2019-05-02T10:15:42.095Z,48.66
2019-05-02T10:18:12.055Z,49.13
2019-05-02T10:20:41.843Z,49.20
2019-05-02T10:23:12.105Z,49.16
2019-05-02T10:25:46.009Z,49.00
2019-05-02T10:28:10.279Z,49.78
2019-05-02T10:30:38.770Z,50.47
2019-05-02T10:33:06.771Z,50.07
2019-05-02T10:35:40.669Z,48.82
2019-05-02T10:38:09.378Z,48.92
2019-05-02T10:40:37.930Z,48.11
2019-05-02T10:43:05.782Z,49.12
2019-05-02T10:45:34.017Z,46.82
2019-05-02T10:48:02.263Z,46.89
2019-05-02T10:50:36.197Z,46.76
2019-05-02T10:53:11.286Z,46.52
2019-05-02T10:55:34.185Z,46.88
2019-05-02T10:58:02.271Z,46.25
2019-05-02T11:00:34.615Z,46.34
2019-05-02T11:03:17.962Z,45.86
2019-05-02T11:05:48.599Z,46.26
2019-05-02T11:08:16.444Z,46.80
2019-05-02T11:10:45.151Z,44.25
2019-05-02T11:13:32.329Z,44.58
2019-05-02T11:16:22.637Z,43.47
2019-05-02T11:19:05.108Z,44.17
2019-05-02T11:21:53.497Z,44.62
2019-05-02T11:24:25.454Z,45.23
2019-05-02T11:26:53.450Z,43.77
2019-05-02T11:29:22.760Z,43.00
2019-05-02T11:31:52.080Z,43.12
2019-05-02T11:34:21.599Z,44.13
2019-05-02T11:36:49.734Z,43.85
2019-05-02T11:39:26.305Z,43.44
2019-05-02T11:41:47.272Z,42.68
2019-05-02T11:44:14.956Z,43.95
2019-05-02T11:46:46.788Z,43.33
2019-05-02T11:49:13.359Z,43.87
2019-05-02T11:51:42.155Z,43.37
2019-05-02T11:54:10.202Z,43.18
2019-05-02T11:56:51.322Z,43.84
2019-05-02T11:59:22.595Z,42.77
2019-05-02T12:02:03.327Z,42.85
2019-05-02T12:04:32.611Z,42.40
2019-05-02T12:07:02.760Z,42.60
2019-05-02T12:09:31.985Z,42.65
2019-05-02T12:11:59.884Z,42.12
2019-05-02T12:14:32.112Z,42.89
2019-05-02T12:16:57.240Z,43.32
2019-05-02T12:19:25.215Z,42.37
2019-05-02T12:21:55.522Z,42.41
2019-05-02T12:24:23.399Z,42.60
2019-05-02T12:26:52.863Z,43.47
2019-05-02T12:29:21.801Z,43.14
2019-05-02T12:31:54.709Z,42.36
2019-05-02T12:34:21.706Z,43.47
2019-05-02T12:36:49.779Z,41.95
2019-05-02T12:39:17.669Z,42.32
2019-05-02T12:41:45.761Z,41.64
2019-05-02T12:44:13.989Z,42.42
2019-05-02T12:46:42.391Z,42.79
2019-05-02T12:49:22.575Z,41.64
2019-05-02T12:51:40.176Z,42.43
2019-05-02T12:54:07.941Z,42.54
2019-05-02T12:56:36.240Z,42.35
2019-05-02T12:59:05.161Z,43.05
2019-05-02T13:01:33.316Z,42.56
2019-05-02T13:04:09.136Z,41.33
2019-05-02T13:06:37.307Z,42.45
2019-05-02T13:09:08.658Z,42.02
2019-05-02T13:11:45.982Z,41.83
2019-05-02T13:14:19.126Z,42.00
2019-05-02T13:16:43.966Z,41.86
2019-05-02T13:19:12.045Z,41.21
2019-05-02T13:21:50.197Z,41.21
2019-05-02T13:24:36.715Z,41.87
2019-05-02T13:27:08.916Z,42.63
2019-05-02T13:29:38.734Z,42.02
2019-05-02T13:32:35.477Z,41.55
2019-05-02T13:35:23.054Z,42.10
2019-05-02T13:37:54.035Z,42.21
2019-05-02T13:40:29.626Z,41.77
2019-05-02T13:42:57.619Z,41.22
2019-05-02T13:45:35.184Z,40.91
2019-05-02T13:48:02.968Z,40.05
2019-05-02T13:50:31.725Z,39.83
2019-05-02T13:52:59.512Z,40.02
2019-05-02T13:55:32.820Z,39.39
2019-05-02T13:58:02.319Z,37.66
2019-05-02T14:00:44.596Z,38.30
2019-05-02T14:03:12.603Z,36.96
2019-05-02T14:05:49.186Z,36.58
2019-05-02T14:08:36.793Z,36.84
2019-05-02T14:11:21.646Z,36.62
2019-05-02T14:13:49.347Z,36.31
2019-05-02T14:16:17.252Z,35.90
2019-05-02T14:18:44.936Z,36.70
2019-05-02T14:21:12.694Z,36.55
2019-05-02T14:23:42.038Z,36.69
2019-05-02T14:26:11.694Z,36.52
2019-05-02T14:28:39.535Z,35.35
2019-05-02T14:31:11.891Z,35.73
2019-05-02T14:33:42.360Z,36.49
2019-05-02T14:36:11.681Z,36.15
2019-05-02T14:38:41.726Z,36.60
2019-05-02T14:41:14.472Z,36.54
2019-05-02T14:43:57.036Z,35.99
2019-05-02T14:46:34.450Z,36.15
2019-05-02T14:48:55.578Z,36.38
2019-05-02T14:51:27.556Z,35.51
2019-05-02T14:53:57.493Z,34.41
2019-05-02T14:56:33.024Z,34.91
2019-05-02T14:59:02.634Z,35.37
2019-05-02T15:01:32.140Z,35.56
2019-05-02T15:04:04.059Z,34.40
2019-05-02T15:06:33.000Z,34.78
2019-05-02T15:09:02.261Z,33.87
2019-05-02T15:11:32.219Z,33.51
2019-05-02T15:13:59.301Z,34.24
2019-05-02T15:16:39.567Z,33.01
2019-05-02T15:18:57.180Z,33.16
2019-05-02T15:21:32.398Z,32.65
2019-05-02T15:24:01.714Z,32.23
2019-05-02T15:26:31.268Z,32.81
2019-05-02T15:28:59.204Z,31.77
2019-05-02T15:31:33.764Z,30.67
2019-05-02T15:34:13.581Z,31.67
2019-05-02T15:36:45.682Z,30.87
2019-05-02T15:41:44.712Z,32.09
2019-05-02T15:44:12.592Z,32.54
2019-05-02T15:46:42.443Z,31.93
2019-05-02T15:49:12.191Z,32.26
2019-05-02T15:51:45.051Z,31.10
2019-05-02T15:54:09.696Z,31.96
2019-05-02T15:57:00.464Z,32.08
2019-05-02T15:59:37.562Z,32.87
2019-05-02T16:02:07.606Z,33.33
2019-05-02T16:04:36.598Z,34.33
2019-05-02T16:07:08.222Z,34.25
2019-05-02T16:09:34.478Z,32.08
2019-05-02T16:12:03.071Z,31.67
2019-05-02T16:14:35.725Z,32.58
2019-05-02T16:17:03.807Z,31.75
2019-05-02T16:19:34.093Z,32.50
2019-05-02T16:22:14.955Z,32.45
2019-05-02T16:24:43.869Z,33.45
2019-05-02T16:27:16.406Z,33.98
2019-05-02T16:29:42.186Z,34.55
2019-05-02T16:32:31.041Z,35.18
2019-05-02T16:35:12.153Z,35.69
2019-05-02T16:37:33.665Z,36.10
2019-05-02T16:40:02.517Z,36.32
2019-05-02T16:42:30.440Z,36.36
2019-05-02T16:44:58.275Z,36.49
2019-05-02T16:47:26.162Z,36.23
2019-05-02T16:49:56.401Z,36.94
2019-05-02T16:52:24.029Z,37.02
2019-05-02T16:54:52.668Z,37.37
2019-05-02T16:57:22.146Z,37.79
2019-05-02T16:59:56.172Z,37.71
2019-05-02T17:02:21.768Z,38.06
2019-05-02T17:04:52.117Z,38.08
2019-05-02T17:07:26.625Z,38.54
2019-05-02T17:10:20.076Z,38.83
2019-05-02T17:12:55.025Z,38.92
2019-05-02T17:15:34.953Z,39.15
2019-05-02T17:18:04.969Z,39.33
2019-05-02T17:20:31.962Z,39.64
2019-05-02T17:23:06.638Z,39.56
2019-05-02T17:25:29.851Z,40.12
2019-05-02T17:28:04.023Z,39.92
2019-05-02T17:30:31.473Z,40.41
2019-05-02T17:32:57.092Z,40.73
2019-05-02T17:35:25.187Z,40.76
2019-05-02T17:37:59.628Z,41.20
2019-05-02T17:40:27.556Z,41.29
2019-05-02T17:42:57.075Z,41.61
2019-05-02T17:45:26.992Z,41.89
2019-05-02T17:47:54.770Z,41.80
2019-05-02T17:50:42.370Z,42.04
2019-05-02T17:53:11.633Z,42.10
2019-05-02T17:55:40.797Z,42.55
2019-05-02T17:58:12.531Z,42.53
2019-05-02T18:00:43.040Z,42.85
2019-05-02T18:03:12.435Z,42.67
2019-05-02T18:05:41.879Z,42.78
2019-05-02T18:08:14.261Z,42.98
2019-05-02T18:10:41.814Z,42.77
2019-05-02T18:13:09.728Z,42.75
2019-05-02T18:15:37.569Z,42.96
2019-05-02T18:18:06.772Z,43.06
2019-05-02T18:20:37.244Z,43.18
2019-05-02T18:23:06.072Z,43.45
2019-05-02T18:25:34.067Z,43.72
2019-05-02T18:28:02.450Z,43.91
2019-05-02T18:30:30.391Z,44.07
2019-05-02T18:33:03.412Z,44.52
2019-05-02T18:35:27.883Z,44.32
2019-05-02T18:37:55.619Z,44.41
2019-05-02T18:40:27.786Z,44.32
2019-05-02T18:42:56.512Z,44.24
2019-05-02T18:45:28.417Z,44.34
2019-05-02T18:48:01.060Z,44.50
2019-05-02T18:50:36.927Z,44.59
2019-05-02T18:53:06.269Z,44.68
2019-05-02T18:55:34.726Z,44.84
2019-05-02T18:58:05.399Z,45.08
2019-05-02T19:00:38.364Z,45.44
2019-05-02T19:03:07.644Z,45.63
2019-05-02T19:05:33.739Z,45.59
2019-05-02T19:08:02.444Z,45.71
2019-05-02T19:10:32.362Z,45.73
2019-05-02T19:13:04.033Z,45.81
2019-05-02T19:15:34.356Z,45.96
2019-05-02T19:17:59.823Z,45.93
2019-05-02T19:21:06.815Z,46.13
2019-05-02T19:23:35.353Z,46.31
2019-05-02T19:26:10.115Z,46.54
2019-05-02T19:28:53.212Z,47.04
2019-05-02T19:31:23.152Z,47.33
2019-05-02T19:33:52.702Z,48.09
2019-05-02T19:36:24.391Z,48.09
2019-05-02T19:38:52.479Z,48.75
2019-05-02T19:41:22.197Z,48.99
2019-05-02T19:43:51.445Z,49.21
2019-05-02T19:46:24.563Z,49.28
2019-05-02T19:48:49.646Z,49.52
2019-05-02T19:51:20.171Z,50.40
2019-05-02T19:53:53.496Z,50.18
2019-05-02T19:56:17.032Z,50.34
2019-05-02T19:58:46.721Z,50.20
2019-05-02T20:01:17.380Z,50.89
2019-05-02T20:03:44.654Z,51.20
2019-05-02T20:06:12.913Z,51.61
2019-05-02T20:08:42.005Z,52.42
2019-05-02T20:11:10.026Z,52.05
2019-05-02T20:13:37.993Z,51.91
2019-05-02T20:16:16.301Z,52.22
2019-05-02T20:18:47.150Z,51.82
2019-05-02T20:21:37.890Z,51.95
2019-05-02T20:24:09.219Z,52.84
2019-05-02T20:26:51.712Z,52.85
2019-05-02T20:29:24.440Z,52.85
2019-05-02T20:31:52.185Z,53.39
2019-05-02T20:34:22.098Z,53.58
2019-05-02T20:36:51.858Z,54.00
2019-05-02T20:39:19.788Z,53.77
2019-05-02T20:41:47.604Z,54.11
2019-05-02T20:44:15.498Z,54.65
2019-05-02T20:46:43.219Z,54.34
2019-05-02T20:49:12.837Z,54.99
2019-05-02T20:51:42.389Z,55.17
2019-05-02T20:54:12.378Z,55.88
2019-05-02T20:56:40.249Z,55.69
2019-05-02T20:59:08.171Z,55.67
2019-05-02T21:01:36.004Z,55.53
2019-05-02T21:04:03.977Z,55.97
2019-05-02T21:06:44.206Z,56.04
2019-05-02T21:09:33.573Z,56.00
2019-05-02T21:12:04.083Z,55.85
2019-05-02T21:14:34.806Z,56.26
2019-05-02T21:17:03.029Z,57.23
2019-05-02T21:19:32.378Z,56.67
2019-05-02T21:22:04.674Z,57.42
2019-05-02T21:24:32.810Z,57.24
2019-05-02T21:27:01.919Z,57.51
2019-05-02T21:29:32.027Z,57.94
2019-05-02T21:31:59.644Z,58.22
2019-05-02T21:34:27.556Z,58.99
2019-05-02T21:36:55.366Z,59.44
2019-05-02T21:39:23.136Z,58.57
2019-05-02T21:41:51.685Z,59.90
2019-05-02T21:44:19.715Z,59.84
2019-05-02T21:46:47.621Z,59.83
2019-05-02T21:49:35.049Z,59.83
2019-05-02T21:52:18.818Z,59.30
2019-05-02T21:54:56.165Z,59.30
2019-05-02T21:57:23.917Z,59.60
2019-05-02T21:59:52.726Z,59.84
2019-05-02T22:02:22.544Z,60.35
2019-05-02T22:04:50.589Z,61.11
2019-05-02T22:07:17.959Z,61.11
2019-05-02T22:09:45.721Z,62.17
2019-05-02T22:12:13.552Z,61.88
2019-05-02T22:14:42.224Z,62.40
2019-05-02T22:17:10.413Z,63.04
2019-05-02T22:19:38.316Z,63.10
2019-05-02T22:22:06.127Z,63.10
2019-05-02T22:24:33.998Z,62.83
2019-05-02T22:27:02.022Z,63.26
2019-05-02T22:29:29.826Z,63.26
2019-05-02T22:31:57.588Z,63.05
2019-05-02T22:34:25.355Z,63.79
2019-05-02T22:36:54.374Z,63.55
2019-05-02T22:39:53.665Z,63.55
2019-05-02T22:42:21.925Z,64.33
2019-05-02T22:44:49.708Z,64.33
2019-05-02T22:47:17.648Z,63.80
2019-05-02T22:49:45.472Z,64.63
2019-05-02T22:52:14.402Z,65.18
2019-05-02T22:54:42.433Z,65.08
2019-05-02T22:57:11.622Z,65.00
2019-05-02T22:59:42.132Z,65.71
2019-05-02T23:02:09.785Z,65.71
2019-05-02T23:04:37.500Z,65.41
2019-05-02T23:07:05.361Z,65.41
2019-05-02T23:09:33.280Z,65.58
2019-05-02T23:12:02.814Z,65.58
2019-05-02T23:14:32.509Z,65.81
2019-05-02T23:17:02.064Z,66.42
2019-05-02T23:19:47.243Z,66.04
2019-05-02T23:22:24.985Z,65.76
2019-05-02T23:25:11.649Z,65.81
2019-05-02T23:27:51.777Z,66.39
2019-05-02T23:30:22.547Z,66.82
2019-05-02T23:32:51.672Z,66.88
2019-05-02T23:35:19.726Z,66.88
2019-05-02T23:37:47.462Z,67.31
2019-05-02T23:40:15.466Z,67.05
2019-05-02T23:42:43.331Z,66.70
2019-05-02T23:45:12.159Z,67.28
2019-05-02T23:47:42.056Z,66.98
2019-05-02T23:50:12.146Z,67.55
2019-05-02T23:52:40.184Z,67.94
2019-05-02T23:55:08.109Z,67.58
2019-05-02T23:57:35.855Z,67.80
